Time;durP1;ratioP1;P1;durP2;ratioP2;P2;SDS_P1;SDS_P2;PMS_P1;PMS_P2;Temp;Humidity;BMP_temperature;BMP_pressure;BME280_temperature;BME280_humidity;BME280_pressure;Samples;Min_cycle;Max_cycle;Signal;HPM_P1;HPM_P2
2022/10/01 00:00:25;;;;;;;13.02;10.13;;;9.60;99.90;;;;;;5011354;28;20030;-46
2022/10/01 00:02:53;;;;;;;11.48;9.23;;;9.60;99.90;;;;;;5011069;28;20414;-48
2022/10/01 00:05:19;;;;;;;20.17;11.02;;;9.60;99.90;;;;;;5011332;28;20084;-46
2022/10/01 00:07:45;;;;;;;17.65;11.05;;;9.60;99.90;;;;;;5011439;28;20025;-44
2022/10/01 00:10:13;;;;;;;14.73;10.55;;;9.60;99.90;;;;;;5011001;28;20029;-46
2022/10/01 00:12:44;;;;;;;14.35;10.57;;;9.60;99.90;;;;;;5009732;28;20160;-46
2022/10/01 00:15:10;;;;;;;12.75;10.07;;;9.50;99.90;;;;;;5011305;28;20371;-45
2022/10/01 00:17:36;;;;;;;17.77;11.10;;;9.50;99.90;;;;;;5011158;28;20018;-50
2022/10/01 00:20:03;;;;;;;14.43;10.80;;;9.50;99.90;;;;;;5011086;28;20034;-50
2022/10/01 00:22:33;;;;;;;14.10;10.63;;;9.50;99.90;;;;;;5011183;28;20115;-44
2022/10/01 00:24:59;;;;;;;18.73;11.27;;;9.50;99.90;;;;;;5011270;28;20523;-49
2022/10/01 00:27:26;;;;;;;14.88;10.27;;;9.50;99.90;;;;;;5010587;28;20034;-48
2022/10/01 00:29:52;;;;;;;16.88;12.38;;;9.50;99.90;;;;;;5013301;28;20034;-44
2022/10/01 00:32:17;;;;;;;15.18;11.60;;;9.50;99.90;;;;;;5014316;28;20500;-46
2022/10/01 00:34:43;;;;;;;17.92;11.48;;;9.50;99.90;;;;;;5014674;28;20042;-46
2022/10/01 00:37:09;;;;;;;18.05;11.13;;;9.60;99.90;;;;;;5014647;28;20022;-51
2022/10/01 00:39:35;;;;;;;19.27;11.82;;;9.60;99.90;;;;;;5014453;28;20026;-50
2022/10/01 00:42:01;;;;;;;15.15;11.30;;;9.50;99.90;;;;;;5014091;28;20029;-52
2022/10/01 00:44:32;;;;;;;18.27;12.15;;;9.60;99.90;;;;;;5014363;28;20022;-48
2022/10/01 00:47:18;;;;;;;13.93;10.93;;;9.60;99.90;;;;;;5014247;28;20436;-46
2022/10/01 00:49:46;;;;;;;16.73;11.30;;;9.60;99.90;;;;;;5014370;28;20018;-47
2022/10/01 00:52:16;;;;;;;18.10;12.27;;;9.60;99.90;;;;;;5013873;28;20022;-49
2022/10/01 00:54:53;;;;;;;22.40;12.18;;;9.70;99.90;;;;;;5017372;22;20046;-43
2022/10/01 00:57:23;;;;;;;24.27;15.52;;;9.60;99.90;;;;;;4975152;28;20420;-45
2022/10/01 00:59:49;;;;;;;14.68;11.80;;;9.70;99.90;;;;;;4975097;28;20019;-46
2022/10/01 01:02:14;;;;;;;17.92;12.73;;;9.80;99.90;;;;;;4973484;28;20031;-46
2022/10/01 01:04:40;;;;;;;16.67;13.00;;;9.70;99.90;;;;;;4974955;28;20182;-44
2022/10/01 01:07:08;;;;;;;20.02;13.25;;;9.70;99.90;;;;;;4975047;28;20027;-45
2022/10/01 01:09:36;;;;;;;26.45;11.93;;;9.70;99.90;;;;;;4974877;28;20038;-44
2022/10/01 01:12:24;;;;;;;13.48;11.23;;;9.70;99.90;;;;;;4975003;28;20023;-44
2022/10/01 01:15:14;;;;;;;19.50;11.68;;;9.70;99.90;;;;;;4974689;28;20501;-46
2022/10/01 01:17:53;;;;;;;15.27;12.32;;;9.70;99.90;;;;;;4974939;28;20023;-45
2022/10/01 01:20:40;;;;;;;13.13;10.65;;;9.80;99.90;;;;;;4973566;28;20030;-44
2022/10/01 01:23:15;;;;;;;16.67;12.05;;;9.80;99.90;;;;;;4974545;28;20514;-45
2022/10/01 01:25:55;;;;;;;15.35;11.80;;;9.70;99.90;;;;;;4974550;28;20038;-46
2022/10/01 01:28:23;;;;;;;18.45;11.90;;;9.70;99.90;;;;;;4974032;28;20491;-46
2022/10/01 01:30:54;;;;;;;18.40;12.27;;;9.80;99.90;;;;;;4974503;28;20451;-45
2022/10/01 01:33:23;;;;;;;15.25;11.88;;;9.80;99.90;;;;;;4974213;28;20086;-46
2022/10/01 01:35:55;;;;;;;17.45;11.35;;;9.80;99.90;;;;;;4973177;28;20034;-43
2022/10/01 01:38:26;;;;;;;17.73;12.27;;;9.80;99.90;;;;;;4974428;28;20074;-46
2022/10/01 01:40:55;;;;;;;16.40;13.00;;;9.80;99.90;;;;;;4974338;28;20081;-48
2022/10/01 01:43:28;;;;;;;21.15;13.43;;;9.80;99.90;;;;;;4972879;28;20027;-45
2022/10/01 01:45:54;;;;;;;13.10;11.68;;;9.90;99.90;;;;;;4974265;28;20121;-49
2022/10/01 01:48:21;;;;;;;15.07;11.63;;;9.90;99.90;;;;;;4972854;28;20074;-44
2022/10/01 01:50:51;;;;;;;17.65;12.73;;;9.80;99.90;;;;;;4972775;28;20029;-45
2022/10/01 01:53:18;;;;;;;19.02;12.05;;;9.80;99.90;;;;;;4972643;28;20034;-45
2022/10/01 01:55:46;;;;;;;23.23;12.43;;;9.90;99.90;;;;;;4973879;28;20031;-45
2022/10/01 01:58:12;;;;;;;17.73;12.98;;;9.90;99.90;;;;;;4973967;28;20095;-45
2022/10/01 02:00:38;;;;;;;15.80;11.43;;;9.90;99.90;;;;;;4972635;28;20031;-47
2022/10/01 02:03:05;;;;;;;16.65;11.98;;;9.90;99.90;;;;;;4973853;28;20510;-44
2022/10/01 02:05:47;;;;;;;14.50;11.75;;;9.90;99.90;;;;;;4973934;28;20262;-47
2022/10/01 02:08:23;;;;;;;15.13;11.57;;;10.00;99.90;;;;;;4972551;28;20054;-48
2022/10/01 02:11:04;;;;;;;11.32;10.23;;;10.00;99.90;;;;;;4973757;28;20034;-47
2022/10/01 02:13:49;;;;;;;16.27;12.15;;;10.00;99.90;;;;;;4973387;28;20394;-44
2022/10/01 02:16:32;;;;;;;14.52;10.48;;;10.00;99.90;;;;;;4973771;28;20015;-44
2022/10/01 02:19:14;;;;;;;14.13;12.25;;;10.00;99.90;;;;;;4973876;28;20030;-48
2022/10/01 02:21:44;;;;;;;14.35;10.98;;;10.00;99.90;;;;;;4973626;28;20050;-44
2022/10/01 02:24:48;;;;;;;15.68;11.27;;;10.00;99.90;;;;;;4973576;28;20026;-48
2022/10/01 02:27:22;;;;;;;13.43;11.20;;;10.10;99.90;;;;;;4972941;28;20030;-45
2022/10/01 02:29:49;;;;;;;18.35;10.93;;;10.00;99.90;;;;;;4973721;28;20070;-46
2022/10/01 02:32:17;;;;;;;13.02;10.88;;;10.00;99.90;;;;;;4973219;28;20026;-43
2022/10/01 02:34:44;;;;;;;16.40;11.07;;;10.10;99.90;;;;;;4973433;28;20034;-47
2022/10/01 02:37:11;;;;;;;11.98;10.15;;;10.10;99.90;;;;;;4973380;28;20019;-44
2022/10/01 02:39:42;;;;;;;14.88;10.40;;;10.10;99.90;;;;;;4973167;28;20031;-46
2022/10/01 02:42:11;;;;;;;12.13;10.18;;;10.10;99.90;;;;;;4972976;28;20038;-46
2022/10/01 02:44:41;;;;;;;12.63;10.50;;;10.10;99.90;;;;;;4973392;28;20076;-44
2022/10/01 02:47:15;;;;;;;14.82;10.02;;;10.00;99.90;;;;;;4973308;28;20019;-49
2022/10/01 02:49:41;;;;;;;17.02;10.27;;;10.00;99.90;;;;;;4973028;28;20058;-47
2022/10/01 02:52:22;;;;;;;13.85;10.45;;;10.00;99.90;;;;;;4972482;28;20034;-45
2022/10/01 02:55:05;;;;;;;15.68;10.48;;;10.00;99.90;;;;;;4972926;28;20035;-47
2022/10/01 02:57:31;;;;;;;12.60;9.57;;;10.10;99.90;;;;;;4973175;28;20118;-44
2022/10/01 03:00:06;;;;;;;14.43;10.18;;;10.10;99.90;;;;;;4973084;28;20078;-44
2022/10/01 03:02:32;;;;;;;12.88;9.18;;;10.10;99.90;;;;;;4972682;28;20104;-45
2022/10/01 03:04:58;;;;;;;11.55;8.40;;;10.10;99.90;;;;;;4972958;28;20109;-45
2022/10/01 03:07:27;;;;;;;11.90;8.68;;;10.10;99.90;;;;;;4972951;28;20034;-49
2022/10/01 03:09:53;;;;;;;14.43;8.52;;;10.10;99.90;;;;;;4972803;28;20027;-45
2022/10/01 03:12:19;;;;;;;11.50;10.13;;;10.10;99.90;;;;;;4972433;28;20027;-45
2022/10/01 03:14:45;;;;;;;14.32;9.43;;;10.10;99.90;;;;;;4972771;28;20049;-46
2022/10/01 03:17:12;;;;;;;14.75;7.65;;;10.10;99.90;;;;;;4972727;28;20082;-45
2022/10/01 03:19:37;;;;;;;10.57;7.95;;;10.10;99.90;;;;;;4972682;28;20038;-45
2022/10/01 03:22:03;;;;;;;12.35;8.57;;;10.20;99.90;;;;;;4972542;28;20027;-45
2022/10/01 03:24:29;;;;;;;12.10;8.35;;;10.10;99.90;;;;;;4972625;28;20030;-45
2022/10/01 03:26:56;;;;;;;11.27;8.18;;;10.10;99.90;;;;;;4972653;28;20058;-49
2022/10/01 03:29:22;;;;;;;11.55;8.68;;;10.20;99.90;;;;;;4972278;28;20031;-45
2022/10/01 03:31:47;;;;;;;12.63;8.25;;;10.20;99.90;;;;;;4971315;28;20027;-47
2022/10/01 03:34:13;;;;;;;10.20;7.57;;;10.30;99.90;;;;;;4972799;28;20097;-44
2022/10/01 03:36:39;;;;;;;9.02;7.63;;;10.30;99.90;;;;;;4972564;28;20122;-45
2022/10/01 03:39:04;;;;;;;10.98;8.05;;;10.40;99.90;;;;;;4972526;28;20082;-46
2022/10/01 03:41:30;;;;;;;9.35;8.02;;;10.40;99.90;;;;;;4972495;28;20031;-46
2022/10/01 03:43:55;;;;;;;9.75;7.55;;;10.40;99.90;;;;;;4972201;28;20043;-48
2022/10/01 03:46:21;;;;;;;10.45;7.82;;;10.40;99.90;;;;;;4972569;28;20045;-49
2022/10/01 03:48:48;;;;;;;9.00;7.93;;;10.40;99.90;;;;;;4972447;28;20443;-45
2022/10/01 03:51:13;;;;;;;10.15;7.65;;;10.40;99.90;;;;;;4972543;28;20023;-45
2022/10/01 03:53:39;;;;;;;10.65;7.05;;;10.50;99.90;;;;;;4971983;28;20077;-45
2022/10/01 03:56:05;;;;;;;12.63;7.82;;;10.50;99.90;;;;;;4972425;28;20025;-44
2022/10/01 03:58:30;;;;;;;8.77;6.70;;;10.40;99.90;;;;;;4973109;28;20065;-45
2022/10/01 04:00:56;;;;;;;10.13;8.23;;;10.40;99.90;;;;;;4973228;28;20218;-45
2022/10/01 04:03:22;;;;;;;10.30;7.85;;;10.40;99.90;;;;;;4972676;28;20034;-45
2022/10/01 04:05:48;;;;;;;9.60;7.95;;;10.50;99.90;;;;;;4976301;28;20487;-45
2022/10/01 04:08:14;;;;;;;10.13;7.53;;;10.40;99.90;;;;;;4976142;28;20434;-45
2022/10/01 04:10:40;;;;;;;8.23;7.00;;;10.40;99.90;;;;;;4976037;28;20035;-49
2022/10/01 04:13:07;;;;;;;12.40;6.93;;;10.40;99.90;;;;;;4975543;28;20027;-44
2022/10/01 04:15:33;;;;;;;11.25;7.32;;;10.40;99.90;;;;;;4975905;28;20027;-47
2022/10/01 04:18:01;;;;;;;7.75;6.82;;;10.40;99.90;;;;;;4976093;28;20072;-47
2022/10/01 04:20:26;;;;;;;8.30;7.13;;;10.40;99.90;;;;;;4975806;28;20026;-44
2022/10/01 04:22:52;;;;;;;10.80;8.10;;;10.40;99.90;;;;;;4975608;28;20031;-44
2022/10/01 04:25:17;;;;;;;9.77;7.05;;;10.40;99.90;;;;;;4975624;28;20049;-46
2022/10/01 04:28:13;;;;;;;11.20;7.35;;;10.30;99.90;;;;;;4975210;28;20031;-45
2022/10/01 04:30:40;;;;;;;9.13;6.68;;;10.30;99.90;;;;;;4975386;28;20038;-44
2022/10/01 04:33:08;;;;;;;10.55;6.43;;;10.30;99.90;;;;;;4975426;28;20085;-45
2022/10/01 04:35:34;;;;;;;10.82;7.70;;;10.30;99.90;;;;;;4975370;28;20027;-47
2022/10/01 04:38:04;;;;;;;11.02;7.40;;;10.30;99.90;;;;;;4975588;28;20505;-44
2022/10/01 04:40:33;;;;;;;9.10;7.25;;;10.30;99.90;;;;;;4975437;28;20038;-48
2022/10/01 04:42:59;;;;;;;11.88;7.72;;;10.20;99.90;;;;;;4975135;28;20026;-44
2022/10/01 04:45:25;;;;;;;10.18;6.38;;;10.20;99.90;;;;;;4975379;28;20033;-45
2022/10/01 04:47:52;;;;;;;11.00;7.28;;;10.20;99.90;;;;;;4975374;28;20109;-48
2022/10/01 04:50:19;;;;;;;10.45;7.70;;;10.20;99.90;;;;;;4975220;28;20030;-44
2022/10/01 04:52:45;;;;;;;10.25;7.80;;;10.20;99.90;;;;;;4975067;28;20515;-44
2022/10/01 04:55:12;;;;;;;14.40;8.43;;;10.10;99.90;;;;;;4974925;28;20031;-45
2022/10/01 04:57:38;;;;;;;12.18;7.13;;;10.10;99.90;;;;;;4975308;28;20435;-43
2022/10/01 05:00:05;;;;;;;13.02;7.78;;;10.10;99.90;;;;;;4975193;28;20396;-45
2022/10/01 05:02:33;;;;;;;10.40;8.05;;;10.10;99.90;;;;;;4973709;28;20498;-46
2022/10/01 05:04:59;;;;;;;18.15;7.30;;;10.00;99.90;;;;;;4975011;28;20391;-44
2022/10/01 05:07:25;;;;;;;9.57;8.38;;;10.00;99.90;;;;;;4975129;28;20031;-45
2022/10/01 05:09:50;;;;;;;10.50;7.88;;;10.00;99.90;;;;;;4974825;28;20037;-45
2022/10/01 05:12:15;;;;;;;12.38;7.85;;;10.00;99.90;;;;;;4974828;28;20399;-46
2022/10/01 05:14:41;;;;;;;10.07;7.70;;;10.00;99.90;;;;;;4974513;28;20031;-45
2022/10/01 05:17:07;;;;;;;9.57;7.28;;;10.00;99.90;;;;;;4975183;28;20026;-45
2022/10/01 05:19:32;;;;;;;12.05;9.20;;;10.00;99.90;;;;;;4974684;28;20114;-48
2022/10/01 05:21:59;;;;;;;8.68;7.78;;;10.00;99.90;;;;;;4974573;28;20037;-44
2022/10/01 05:24:24;;;;;;;17.13;7.43;;;10.00;99.90;;;;;;4974434;28;20413;-44
2022/10/01 05:26:52;;;;;;;10.90;7.82;;;10.00;99.90;;;;;;4974439;28;20118;-48
2022/10/01 05:29:18;;;;;;;10.88;8.02;;;10.00;99.90;;;;;;4973979;28;20077;-45
2022/10/01 05:31:44;;;;;;;10.38;6.63;;;10.00;99.90;;;;;;4974579;28;20018;-44
2022/10/01 05:34:09;;;;;;;11.02;6.82;;;10.00;99.90;;;;;;4974280;28;20042;-46
2022/10/01 05:36:35;;;;;;;7.38;6.57;;;10.00;99.90;;;;;;4974504;28;20034;-43
2022/10/01 05:39:01;;;;;;;11.02;6.45;;;10.00;99.90;;;;;;4974355;28;20510;-48
2022/10/01 05:41:26;;;;;;;8.40;7.55;;;10.00;99.90;;;;;;4974536;28;20019;-42
2022/10/01 05:43:52;;;;;;;8.63;6.82;;;10.10;99.90;;;;;;4974036;28;20106;-45
2022/10/01 05:46:18;;;;;;;14.65;7.03;;;10.00;99.90;;;;;;4974325;28;20114;-42
2022/10/01 05:48:44;;;;;;;7.85;6.20;;;10.00;99.90;;;;;;4974136;28;20034;-49
2022/10/01 05:51:09;;;;;;;8.35;6.88;;;10.00;99.90;;;;;;4974460;28;20220;-45
2022/10/01 05:53:38;;;;;;;8.52;6.57;;;10.00;99.90;;;;;;4973853;28;20023;-44
2022/10/01 05:56:09;;;;;;;9.27;6.35;;;10.10;99.90;;;;;;4972971;28;20023;-45
2022/10/01 05:58:35;;;;;;;6.80;6.18;;;10.10;99.90;;;;;;4974306;28;20046;-43
2022/10/01 06:01:02;;;;;;;7.60;5.88;;;10.10;99.90;;;;;;4974683;28;20433;-48
2022/10/01 06:03:28;;;;;;;10.90;5.90;;;10.10;99.90;;;;;;4973940;28;20037;-47
2022/10/01 06:05:55;;;;;;;9.63;6.97;;;10.10;99.90;;;;;;4974114;28;20407;-42
2022/10/01 06:08:21;;;;;;;7.55;6.18;;;10.10;99.90;;;;;;4973829;28;20030;-48
2022/10/01 06:10:46;;;;;;;9.15;5.97;;;10.10;99.90;;;;;;4974271;28;20096;-45
2022/10/01 06:13:18;;;;;;;10.10;6.38;;;10.10;99.90;;;;;;4973653;28;20322;-46
2022/10/01 06:15:45;;;;;;;7.13;5.72;;;10.10;99.90;;;;;;4973782;28;20025;-44
2022/10/01 06:18:12;;;;;;;9.02;5.82;;;10.20;99.90;;;;;;4973671;28;20049;-46
2022/10/01 06:20:39;;;;;;;9.18;6.38;;;10.20;99.90;;;;;;4973885;28;20073;-45
2022/10/01 06:23:10;;;;;;;8.10;6.63;;;10.10;99.90;;;;;;4973387;28;20038;-50
2022/10/01 06:25:37;;;;;;;9.90;5.43;;;10.10;99.90;;;;;;4973445;28;20038;-46
2022/10/01 06:28:04;;;;;;;8.52;5.82;;;10.10;99.90;;;;;;4972580;28;20030;-46
2022/10/01 06:30:31;;;;;;;8.77;5.75;;;10.20;99.90;;;;;;4973496;28;20152;-44
2022/10/01 06:33:07;;;;;;;7.80;6.25;;;10.20;99.90;;;;;;4973158;28;20098;-47
2022/10/01 06:35:34;;;;;;;15.30;6.45;;;10.20;99.90;;;;;;4973323;28;20022;-46
2022/10/01 06:38:01;;;;;;;7.20;5.38;;;10.30;99.90;;;;;;4973242;28;20027;-45
2022/10/01 06:40:30;;;;;;;6.97;5.47;;;10.20;99.90;;;;;;4973190;28;20023;-46
2022/10/01 06:42:59;;;;;;;9.15;6.00;;;10.20;99.90;;;;;;4972988;28;20145;-47
2022/10/01 06:45:25;;;;;;;8.23;5.88;;;10.20;99.90;;;;;;4971851;28;20046;-44
2022/10/01 06:47:55;;;;;;;8.23;5.75;;;10.20;99.90;;;;;;4973263;28;20023;-44
2022/10/01 06:50:22;;;;;;;10.30;6.03;;;10.30;99.90;;;;;;4972969;28;20027;-46
2022/10/01 06:52:48;;;;;;;7.88;5.50;;;10.30;99.90;;;;;;4972853;28;20030;-47
2022/10/01 06:55:22;;;;;;;5.78;5.28;;;10.20;99.90;;;;;;5005280;23;20054;-44
2022/10/01 06:58:06;;;;;;;6.88;5.25;;;10.30;99.90;;;;;;4992600;28;20053;-44
2022/10/01 07:00:34;;;;;;;7.65;5.28;;;10.30;99.90;;;;;;4992725;28;20486;-42
2022/10/01 07:03:00;;;;;;;6.68;5.82;;;10.40;99.90;;;;;;4992047;28;20042;-43
2022/10/01 07:05:26;;;;;;;8.07;5.22;;;10.30;99.90;;;;;;4992233;28;20449;-44
2022/10/01 07:07:52;;;;;;;6.05;5.45;;;10.40;99.90;;;;;;4992693;28;20027;-42
2022/10/01 07:10:19;;;;;;;7.07;6.35;;;10.40;99.90;;;;;;4991087;28;20041;-42
2022/10/01 07:12:47;;;;;;;6.90;5.68;;;10.40;99.90;;;;;;4992300;28;20109;-44
2022/10/01 07:15:14;;;;;;;9.95;5.32;;;10.40;99.90;;;;;;4992889;28;20137;-50
2022/10/01 07:17:48;;;;;;;8.95;5.32;;;10.40;99.90;;;;;;4992800;28;20030;-43
2022/10/01 07:20:16;;;;;;;5.97;5.13;;;10.40;99.90;;;;;;4992624;28;20088;-45
2022/10/01 07:22:42;;;;;;;7.25;5.75;;;10.40;99.90;;;;;;4992130;28;20019;-48
2022/10/01 07:25:08;;;;;;;7.03;6.28;;;10.40;99.90;;;;;;4992133;28;20454;-45
2022/10/01 07:27:34;;;;;;;5.40;4.90;;;10.40;99.90;;;;;;4991962;28;20042;-43
2022/10/01 07:29:59;;;;;;;9.15;5.60;;;10.40;99.90;;;;;;4990815;28;20050;-44
2022/10/01 07:32:25;;;;;;;4.63;4.32;;;10.50;99.90;;;;;;4991972;28;20023;-46
2022/10/01 07:34:51;;;;;;;7.38;6.20;;;10.50;99.90;;;;;;4992156;28;20015;-48
2022/10/01 07:37:17;;;;;;;6.38;5.45;;;10.50;99.90;;;;;;4991076;28;20023;-44
2022/10/01 07:39:42;;;;;;;9.27;7.05;;;10.50;99.90;;;;;;4995974;28;20443;-44
2022/10/01 07:42:09;;;;;;;6.65;5.93;;;10.50;99.90;;;;;;4996273;28;20112;-45
2022/10/01 07:44:34;;;;;;;9.00;5.55;;;10.50;99.90;;;;;;4996395;28;20022;-46
2022/10/01 07:47:00;;;;;;;6.03;5.13;;;10.50;99.90;;;;;;4996440;28;20038;-45
2022/10/01 07:49:26;;;;;;;6.68;5.22;;;10.50;99.90;;;;;;4996398;28;20030;-43
2022/10/01 07:51:53;;;;;;;9.35;5.95;;;10.50;99.90;;;;;;4997285;28;20045;-40
2022/10/01 07:54:20;;;;;;;6.72;5.97;;;10.50;99.90;;;;;;4998368;28;20090;-45
2022/10/01 07:56:51;;;;;;;7.25;5.65;;;10.30;99.90;;;;;;5002399;28;20050;-45
2022/10/01 07:59:17;;;;;;;7.43;5.60;;;10.40;99.90;;;;;;4997580;28;20026;-43
2022/10/01 08:01:43;;;;;;;6.38;5.63;;;10.40;99.90;;;;;;4998371;28;20026;-47
2022/10/01 08:06:53;;;;;;;7.82;5.68;;;10.40;99.90;;;;;;4997930;28;20133;-43
2022/10/01 08:09:19;;;;;;;6.93;5.55;;;10.40;99.90;;;;;;4997706;28;20049;-44
2022/10/01 08:11:46;;;;;;;5.82;5.28;;;10.40;99.90;;;;;;4996942;28;20419;-46
2022/10/01 08:14:13;;;;;;;6.85;6.15;;;10.50;99.90;;;;;;4996183;28;20019;-45
2022/10/01 08:16:39;;;;;;;6.32;5.47;;;10.50;99.90;;;;;;4996006;28;20029;-48
2022/10/01 08:19:08;;;;;;;5.25;4.75;;;10.50;99.90;;;;;;4995849;28;20022;-46
2022/10/01 08:21:34;;;;;;;5.38;4.50;;;10.50;99.90;;;;;;4995610;28;20088;-45
2022/10/01 08:24:04;;;;;;;5.47;4.60;;;10.50;99.90;;;;;;4995435;28;20050;-46
2022/10/01 08:26:30;;;;;;;5.57;4.38;;;10.60;99.90;;;;;;4996186;28;20494;-47
2022/10/01 08:28:56;;;;;;;5.88;4.63;;;10.60;99.90;;;;;;4995476;28;20026;-43
2022/10/01 08:31:22;;;;;;;6.80;4.50;;;10.60;99.90;;;;;;4995678;28;20029;-45
2022/10/01 08:33:47;;;;;;;6.22;4.78;;;10.60;99.90;;;;;;4995258;28;20042;-45
2022/10/01 08:36:13;;;;;;;4.75;4.25;;;10.60;99.90;;;;;;4995758;28;20065;-44
2022/10/01 08:38:39;;;;;;;4.75;4.30;;;10.60;99.90;;;;;;4994178;28;20494;-44
2022/10/01 08:41:35;;;;;;;8.48;5.00;;;10.60;99.90;;;;;;4995488;28;20041;-45
2022/10/01 08:44:04;;;;;;;5.20;4.68;;;10.60;99.90;;;;;;4995477;28;20033;-46
2022/10/01 08:46:34;;;;;;;8.88;5.07;;;10.60;99.90;;;;;;4995590;28;20141;-48
2022/10/01 08:49:02;;;;;;;4.38;3.97;;;10.60;99.90;;;;;;4994601;28;20398;-50
2022/10/01 08:51:45;;;;;;;6.00;3.63;;;10.60;99.90;;;;;;4994548;28;20030;-47
2022/10/01 08:54:22;;;;;;;4.38;3.83;;;10.70;99.90;;;;;;4994945;28;20054;-44
2022/10/01 08:56:48;;;;;;;5.72;3.83;;;10.70;99.90;;;;;;4995204;28;20030;-47
2022/10/01 08:59:28;;;;;;;5.45;3.78;;;10.80;99.90;;;;;;4994940;28;20407;-49
2022/10/01 09:01:55;;;;;;;2.88;2.67;;;10.80;99.90;;;;;;4994661;28;20042;-46
2022/10/01 09:04:21;;;;;;;8.20;3.40;;;10.80;99.90;;;;;;4994680;28;20041;-42
2022/10/01 09:06:55;;;;;;;4.55;3.55;;;10.90;99.90;;;;;;4995003;28;20057;-44
2022/10/01 09:09:38;;;;;;;5.10;2.92;;;10.90;99.90;;;;;;4994429;28;20023;-46
2022/10/01 09:12:37;;;;;;;3.22;2.60;;;11.00;99.90;;;;;;4994385;28;20027;-45
2022/10/01 09:15:33;;;;;;;4.32;3.08;;;11.00;99.90;;;;;;4971918;28;20034;-45
2022/10/01 09:18:20;;;;;;;3.70;3.38;;;11.00;99.90;;;;;;4994504;28;20030;-44
2022/10/01 09:20:57;;;;;;;4.35;3.58;;;11.00;99.90;;;;;;4994446;28;20026;-43
2022/10/01 09:23:38;;;;;;;4.72;3.50;;;11.10;99.90;;;;;;4994282;28;20034;-42
2022/10/01 09:26:09;;;;;;;9.10;4.55;;;11.00;99.90;;;;;;4994326;28;20173;-46
2022/10/01 09:28:37;;;;;;;4.57;4.13;;;10.90;99.90;;;;;;4993970;28;20030;-45
2022/10/01 09:31:16;;;;;;;8.18;4.28;;;11.00;99.90;;;;;;4994412;28;20022;-49
2022/10/01 09:33:57;;;;;;;5.63;4.60;;;11.00;99.90;;;;;;4993730;28;20030;-45
2022/10/01 09:36:41;;;;;;;7.47;3.88;;;11.00;99.90;;;;;;4994395;28;20030;-44
2022/10/01 09:39:24;;;;;;;4.97;3.65;;;10.90;99.90;;;;;;4994105;28;20030;-45
2022/10/01 09:41:50;;;;;;;4.97;3.97;;;10.90;99.90;;;;;;4993890;28;20022;-45
2022/10/01 09:44:25;;;;;;;4.03;3.50;;;11.00;99.90;;;;;;4993960;28;20073;-45
2022/10/01 09:46:50;;;;;;;3.80;3.30;;;11.00;99.90;;;;;;4993910;28;20038;-45
2022/10/01 09:49:33;;;;;;;5.10;3.20;;;11.00;99.90;;;;;;4993615;28;20080;-43
2022/10/01 09:52:05;;;;;;;5.15;3.30;;;11.00;99.90;;;;;;4993623;28;20345;-45
2022/10/01 09:54:38;;;;;;;3.65;3.35;;;11.00;99.90;;;;;;4976399;28;20026;-46
2022/10/01 09:57:08;;;;;;;3.65;2.80;;;11.00;99.90;;;;;;4994011;28;20449;-49
2022/10/01 09:59:42;;;;;;;3.10;2.88;;;11.00;99.90;;;;;;4992669;28;20502;-52
2022/10/01 10:02:35;;;;;;;6.45;3.60;;;11.00;99.90;;;;;;4992506;28;20030;-47
2022/10/01 10:05:02;;;;;;;3.20;2.90;;;11.00;99.90;;;;;;4993118;28;20042;-45
2022/10/01 10:07:31;;;;;;;5.45;3.35;;;11.00;99.90;;;;;;4993410;28;20030;-48
2022/10/01 10:10:06;;;;;;;5.40;3.28;;;11.00;99.90;;;;;;4993469;28;20092;-50
2022/10/01 10:12:33;;;;;;;10.05;3.20;;;11.00;99.90;;;;;;4992674;28;20030;-44
2022/10/01 10:15:07;;;;;;;3.70;3.40;;;11.00;99.90;;;;;;4993703;28;20026;-50
2022/10/01 10:17:36;;;;;;;4.20;3.20;;;11.10;99.90;;;;;;4993413;28;20097;-45
2022/10/01 10:20:10;;;;;;;3.38;3.17;;;11.10;99.90;;;;;;4993314;28;20022;-47
2022/10/01 10:22:35;;;;;;;3.83;2.95;;;11.20;99.90;;;;;;4993577;28;20437;-44
2022/10/01 10:25:12;;;;;;;3.85;3.03;;;11.20;99.90;;;;;;4993310;28;20081;-46
2022/10/01 10:27:53;;;;;;;3.42;3.13;;;11.30;99.90;;;;;;4993125;28;20034;-44
2022/10/01 10:30:20;;;;;;;3.47;2.88;;;11.30;99.90;;;;;;4993365;28;20022;-44
2022/10/01 10:32:46;;;;;;;3.30;2.60;;;11.40;99.90;;;;;;4993472;28;20494;-43
2022/10/01 10:35:23;;;;;;;3.15;2.47;;;11.50;99.90;;;;;;4993599;28;20030;-44
2022/10/01 10:37:56;;;;;;;2.78;2.42;;;11.50;99.90;;;;;;4993148;28;20022;-45
2022/10/01 10:40:28;;;;;;;3.05;2.30;;;11.60;99.90;;;;;;4993090;28;20049;-46
2022/10/01 10:42:56;;;;;;;2.53;2.00;;;11.70;99.90;;;;;;4993087;28;20042;-47
2022/10/01 10:45:37;;;;;;;3.17;2.15;;;11.70;99.90;;;;;;4993042;28;20058;-47
2022/10/01 10:48:06;;;;;;;2.70;2.50;;;11.70;99.90;;;;;;4993093;28;20030;-47
2022/10/01 10:50:37;;;;;;;2.28;2.10;;;11.80;99.90;;;;;;4993143;28;20026;-45
2022/10/01 10:53:24;;;;;;;2.00;1.90;;;11.70;99.90;;;;;;4992621;28;20027;-44
2022/10/01 10:56:02;;;;;;;2.28;2.17;;;11.80;99.90;;;;;;4992942;28;20033;-45
2022/10/01 10:58:32;;;;;;;2.20;2.10;;;11.80;99.90;;;;;;4993052;28;20027;-44
2022/10/01 11:01:03;;;;;;;2.10;2.00;;;11.80;99.90;;;;;;4992975;28;20037;-45
2022/10/01 11:03:31;;;;;;;2.45;2.25;;;11.90;99.90;;;;;;4992573;28;20041;-45
2022/10/01 11:06:11;;;;;;;3.78;2.10;;;11.80;99.90;;;;;;4992432;28;20435;-44
2022/10/01 11:08:38;;;;;;;2.10;2.00;;;11.80;99.90;;;;;;4992608;28;20054;-44
2022/10/01 11:11:16;;;;;;;2.92;2.13;;;11.90;99.90;;;;;;4992404;28;20026;-44
2022/10/01 11:14:07;;;;;;;2.88;2.42;;;11.80;99.90;;;;;;4992108;28;20039;-45
2022/10/01 11:16:39;;;;;;;2.38;2.25;;;11.80;99.90;;;;;;4992494;28;20030;-46
2022/10/01 11:19:17;;;;;;;3.88;2.50;;;11.80;99.90;;;;;;4992420;28;20027;-46
2022/10/01 11:22:04;;;;;;;2.60;2.40;;;11.80;99.90;;;;;;4992702;28;20099;-49
2022/10/01 11:24:48;;;;;;;2.38;2.20;;;11.90;99.90;;;;;;4992604;28;20095;-44
2022/10/01 11:27:43;;;;;;;5.40;2.50;;;11.90;99.90;;;;;;4992414;28;20093;-46
2022/10/01 11:30:25;;;;;;;1.92;1.83;;;12.00;99.90;;;;;;4992118;28;20563;-47
2022/10/01 11:33:02;;;;;;;1.55;1.45;;;12.10;99.90;;;;;;4992477;28;20042;-44
2022/10/01 11:35:52;;;;;;;1.65;1.55;;;12.30;99.90;;;;;;4992957;28;20109;-45
2022/10/01 11:38:37;;;;;;;13.05;10.45;;;12.60;99.90;;;;;;4993330;28;20023;-45
2022/10/01 11:41:21;;;;;;;2.65;2.45;;;12.80;99.90;;;;;;4993857;28;20053;-45
2022/10/01 11:44:02;;;;;;;0.60;0.60;;;13.00;99.90;;;;;;4992071;28;20058;-45
2022/10/01 11:46:43;;;;;;;0.43;0.43;;;13.20;99.90;;;;;;4992161;28;20487;-47
2022/10/01 11:49:44;;;;;;;0.47;0.47;;;13.20;99.90;;;;;;4992230;28;20501;-44
2022/10/01 11:52:14;;;;;;;0.95;0.50;;;13.20;99.90;;;;;;4992136;28;20073;-44
2022/10/01 12:01:43;;;;;;;1.00;0.77;;;13.30;99.90;;;;;;4992076;28;20092;-46
2022/10/01 12:04:21;;;;;;;;;;;13.40;99.90;;;;;;4988832;28;20030;-45
2022/10/01 12:06:56;;;;;;;1.25;0.90;;;13.40;99.90;;;;;;4990490;28;19906;-44
2022/10/01 12:09:31;;;;;;;0.80;0.63;;;13.60;99.90;;;;;;4990887;28;20030;-47
2022/10/01 12:12:21;;;;;;;3.03;0.82;;;13.70;99.90;;;;;;4989864;28;20049;-45
2022/10/01 12:15:00;;;;;;;3.35;0.70;;;13.80;99.90;;;;;;4991074;28;20014;-47
2022/10/01 12:17:44;;;;;;;0.70;0.70;;;13.80;99.90;;;;;;4992358;28;20109;-45
2022/10/01 12:20:35;;;;;;;2.25;0.95;;;13.90;99.90;;;;;;4991364;28;20419;-45
2022/10/01 12:23:04;;;;;;;0.63;0.60;;;14.00;99.90;;;;;;4991532;28;20113;-46
2022/10/01 12:25:43;;;;;;;1.33;0.70;;;14.10;99.90;;;;;;4993094;28;20049;-49
2022/10/01 12:28:13;;;;;;;2.03;0.85;;;14.20;99.90;;;;;;4995175;28;20049;-43
2022/10/01 12:30:52;;;;;;;1.98;0.77;;;14.30;99.90;;;;;;4994281;28;20081;-43
2022/10/01 12:34:05;;;;;;;0.95;0.80;;;14.30;99.90;;;;;;4995656;28;20065;-46
2022/10/01 12:36:43;;;;;;;1.13;0.95;;;14.40;99.90;;;;;;4935322;29;20027;-44
2022/10/01 12:39:36;;;;;;;0.95;0.80;;;14.50;99.90;;;;;;4992581;28;20034;-45
2022/10/01 12:42:24;;;;;;;1.23;1.00;;;14.50;99.90;;;;;;4995519;28;20495;-46
2022/10/01 12:45:32;;;;;;;3.03;0.90;;;14.60;99.90;;;;;;4994984;28;20027;-46
2022/10/01 12:48:15;;;;;;;1.00;0.90;;;14.70;99.90;;;;;;4995625;28;20502;-49
2022/10/01 12:51:13;;;;;;;1.73;0.90;;;14.80;99.90;;;;;;4995318;28;20034;-43
2022/10/01 12:53:55;;;;;;;2.55;0.95;;;14.80;99.90;;;;;;4994976;28;20045;-47
2022/10/01 12:56:29;;;;;;;1.75;1.20;;;14.70;99.90;;;;;;4994524;28;20033;-45
2022/10/01 12:59:32;;;;;;;1.10;0.90;;;14.80;99.90;;;;;;4995031;28;20477;-49
2022/10/01 13:02:08;;;;;;;0.75;0.70;;;14.90;99.90;;;;;;4994362;28;20022;-45
2022/10/01 13:05:11;;;;;;;0.95;0.68;;;14.90;99.90;;;;;;4995197;28;20084;-50
2022/10/01 13:07:51;;;;;;;2.15;0.70;;;15.00;99.90;;;;;;4994761;28;20441;-50
2022/10/01 13:10:44;;;;;;;0.90;0.77;;;14.90;99.90;;;;;;4994984;28;20049;-45
2022/10/01 13:13:28;;;;;;;1.40;0.50;;;14.80;99.90;;;;;;4993470;28;20069;-44
2022/10/01 13:16:16;;;;;;;0.60;0.52;;;15.00;99.90;;;;;;4994361;28;20030;-45